createdAt,value
2018-06-27T00:00:41.644Z,74.30
2018-06-27T00:03:10.208Z,74.40
2018-06-27T00:05:38.702Z,74.20
2018-06-27T00:08:07.148Z,74.30
2018-06-27T00:10:35.567Z,74.30
2018-06-27T00:13:04.132Z,74.20
2018-06-27T00:15:32.630Z,74.40
2018-06-27T00:18:01.055Z,75.00
2018-06-27T00:20:29.473Z,75.00
2018-06-27T00:22:57.911Z,75.30
2018-06-27T00:25:26.361Z,75.30
2018-06-27T00:27:54.785Z,75.00
2018-06-27T00:30:23.185Z,75.50
2018-06-27T00:32:51.701Z,75.50
2018-06-27T00:35:20.097Z,75.80
2018-06-27T00:37:48.523Z,76.00
2018-06-27T00:40:16.977Z,76.20
2018-06-27T00:42:45.402Z,76.20
2018-06-27T00:47:41.896Z,76.60
2018-06-27T00:50:10.368Z,76.70
2018-06-27T00:52:38.750Z,76.70
2018-06-27T00:55:07.233Z,76.80
2018-06-27T00:57:35.662Z,76.80
2018-06-27T01:00:04.196Z,77.10
2018-06-27T01:02:32.622Z,77.10
2018-06-27T01:05:01.037Z,77.00
2018-06-27T01:07:29.514Z,77.00
2018-06-27T01:09:57.962Z,77.10
2018-06-27T01:12:26.404Z,77.20
2018-06-27T01:14:54.832Z,77.00
2018-06-27T01:17:23.310Z,77.30
2018-06-27T01:19:51.750Z,77.30
2018-06-27T01:22:20.190Z,77.20
2018-06-27T01:24:48.606Z,77.40
2018-06-27T01:27:17.071Z,77.60
2018-06-27T01:29:45.516Z,77.50
2018-06-27T01:32:13.893Z,77.70
2018-06-27T01:34:42.274Z,78.10
2018-06-27T01:37:10.715Z,78.10
2018-06-27T01:39:39.162Z,78.10
2018-06-27T01:42:07.631Z,78.60
2018-06-27T01:44:42.471Z,78.60
2018-06-27T01:47:10.906Z,78.80
2018-06-27T01:49:39.359Z,78.60
2018-06-27T01:52:07.758Z,78.90
2018-06-27T01:54:36.112Z,79.00
2018-06-27T01:57:04.894Z,79.20
2018-06-27T01:59:33.847Z,79.70
2018-06-27T02:02:02.242Z,79.80
2018-06-27T02:04:30.754Z,79.70
2018-06-27T02:06:59.149Z,79.60
2018-06-27T02:09:27.549Z,79.10
2018-06-27T02:11:55.982Z,79.20
2018-06-27T02:14:25.334Z,79.50
2018-06-27T02:16:53.762Z,79.40
2018-06-27T02:19:22.240Z,79.50
2018-06-27T02:21:50.821Z,79.40
2018-06-27T02:24:19.221Z,79.50
2018-06-27T02:26:47.683Z,79.40
2018-06-27T02:29:16.090Z,79.30
2018-06-27T02:31:44.623Z,79.50
2018-06-27T02:34:13.050Z,79.80
2018-06-27T02:36:41.459Z,79.80
2018-06-27T02:39:10.795Z,79.90
2018-06-27T02:41:40.383Z,80.20
2018-06-27T02:44:08.926Z,80.30
2018-06-27T02:46:37.617Z,80.70
2018-06-27T02:49:06.136Z,81.30
2018-06-27T02:51:34.614Z,81.00
2018-06-27T02:54:03.154Z,81.10
2018-06-27T02:56:31.538Z,81.30
2018-06-27T02:58:59.920Z,81.70
2018-06-27T03:01:28.361Z,81.70
2018-06-27T03:03:56.789Z,81.70
2018-06-27T03:06:25.213Z,81.80
2018-06-27T03:08:53.653Z,81.80
2018-06-27T03:13:50.390Z,81.90
2018-06-27T03:16:18.966Z,82.20
2018-06-27T03:18:52.715Z,82.10
2018-06-27T03:26:24.332Z,82.30
2018-06-27T03:28:52.760Z,81.50
2018-06-27T03:31:21.138Z,82.20
2018-06-27T03:33:49.639Z,82.20
2018-06-27T03:36:17.941Z,82.70
2018-06-27T03:38:46.386Z,82.20
2018-06-27T03:41:14.833Z,82.50
2018-06-27T03:43:43.234Z,82.60
2018-06-27T03:46:11.606Z,82.60
2018-06-27T03:48:40.140Z,82.30
2018-06-27T03:51:08.543Z,82.20
2018-06-27T03:53:42.136Z,82.50
2018-06-27T03:56:12.448Z,82.60
2018-06-27T03:58:40.857Z,82.90
2018-06-27T04:01:10.348Z,82.90
2018-06-27T04:03:40.201Z,82.80
2018-06-27T04:06:09.540Z,82.80
2018-06-27T04:08:38.050Z,82.50
2018-06-27T04:11:06.736Z,82.40
2018-06-27T04:13:35.299Z,82.60
2018-06-27T04:16:03.921Z,82.50
2018-06-27T04:18:32.393Z,82.40
2018-06-27T04:21:00.858Z,82.30
2018-06-27T04:23:29.270Z,82.20
2018-06-27T04:25:57.791Z,82.10
2018-06-27T04:28:26.202Z,82.30
2018-06-27T04:30:54.645Z,82.10
2018-06-27T04:33:23.093Z,82.30
2018-06-27T04:35:51.999Z,82.10
2018-06-27T04:38:20.441Z,82.00
2018-06-27T04:40:49.003Z,81.90
2018-06-27T04:43:17.531Z,82.20
2018-06-27T04:45:45.797Z,82.10
2018-06-27T04:48:14.253Z,81.80
2018-06-27T04:50:42.730Z,81.60
2018-06-27T04:53:11.117Z,81.80
2018-06-27T04:55:39.530Z,81.50
2018-06-27T04:58:07.948Z,81.90
2018-06-27T05:00:36.534Z,82.30
2018-06-27T05:03:05.012Z,82.30
2018-06-27T05:05:33.502Z,82.30
2018-06-27T05:08:01.992Z,81.80
2018-06-27T05:10:30.435Z,81.60
2018-06-27T05:12:58.872Z,81.60
2018-06-27T05:15:27.287Z,81.80
2018-06-27T05:17:55.730Z,81.90
2018-06-27T05:20:24.183Z,81.40
2018-06-27T05:22:52.769Z,81.70
2018-06-27T05:25:21.213Z,81.50
2018-06-27T05:27:49.653Z,81.50
2018-06-27T05:30:18.057Z,81.20
2018-06-27T05:32:46.806Z,81.70
2018-06-27T05:35:15.207Z,81.20
2018-06-27T05:37:43.699Z,81.20
2018-06-27T05:40:12.113Z,80.60
2018-06-27T05:42:40.643Z,80.80
2018-06-27T05:45:09.037Z,80.50
2018-06-27T05:47:37.457Z,80.40
2018-06-27T05:50:06.027Z,79.70
2018-06-27T05:52:34.477Z,79.80
2018-06-27T05:55:08.961Z,79.20
2018-06-27T05:57:39.094Z,79.00
2018-06-27T06:00:08.433Z,79.40
2018-06-27T06:02:36.972Z,77.60
2018-06-27T06:05:05.475Z,77.60
2018-06-27T06:07:33.922Z,77.30
2018-06-27T06:12:30.586Z,76.70
2018-06-27T06:14:59.026Z,76.20
2018-06-27T06:17:27.445Z,75.60
2018-06-27T06:19:55.915Z,75.30
2018-06-27T06:22:24.325Z,75.00
2018-06-27T06:24:52.746Z,74.60
2018-06-27T06:27:21.189Z,74.10
2018-06-27T06:29:49.662Z,74.40
2018-06-27T06:32:18.191Z,72.60
2018-06-27T06:34:46.573Z,72.40
2018-06-27T06:37:15.033Z,71.80
2018-06-27T06:39:43.550Z,70.90
2018-06-27T06:42:11.932Z,70.90
2018-06-27T06:44:40.294Z,69.50
2018-06-27T06:47:08.798Z,68.50
2018-06-27T06:49:37.174Z,68.50
2018-06-27T06:52:05.650Z,67.90
2018-06-27T06:54:34.469Z,67.60
2018-06-27T06:57:02.956Z,66.80
2018-06-27T06:59:31.371Z,66.40
2018-06-27T07:01:59.755Z,65.30
2018-06-27T07:04:28.161Z,65.40
2018-06-27T07:06:56.544Z,65.40
2018-06-27T07:09:25.039Z,64.20
2018-06-27T07:11:53.408Z,64.30
2018-06-27T07:14:21.806Z,62.40
2018-06-27T07:16:50.268Z,62.60
2018-06-27T07:19:18.694Z,62.20
2018-06-27T07:21:47.070Z,60.40
2018-06-27T07:24:15.491Z,60.90
2018-06-27T07:26:43.893Z,60.60
2018-06-27T07:29:12.301Z,60.00
2018-06-27T07:31:40.817Z,60.20
2018-06-27T07:34:09.270Z,59.60
2018-06-27T07:36:37.706Z,59.60
2018-06-27T07:39:08.472Z,59.20
2018-06-27T07:41:37.246Z,58.80
2018-06-27T07:44:05.762Z,58.00
2018-06-27T07:51:31.279Z,58.10
2018-06-27T07:53:59.740Z,57.80
2018-06-27T07:56:28.182Z,56.90
2018-06-27T07:58:56.749Z,57.60
2018-06-27T08:01:25.859Z,57.90
2018-06-27T08:06:22.821Z,56.80
2018-06-27T08:08:51.243Z,56.80
2018-06-27T08:11:19.726Z,55.30
2018-06-27T08:13:48.139Z,55.10
2018-06-27T08:16:16.534Z,54.60
2018-06-27T08:18:45.113Z,54.80
2018-06-27T08:21:13.546Z,54.10
2018-06-27T08:23:41.937Z,56.40
2018-06-27T08:26:10.411Z,53.30
2018-06-27T08:28:38.809Z,54.00
2018-06-27T08:31:07.243Z,53.50
2018-06-27T08:33:35.689Z,53.60
2018-06-27T08:36:04.996Z,54.00
2018-06-27T08:38:33.400Z,52.70
2018-06-27T08:41:01.840Z,52.10
2018-06-27T08:43:30.264Z,51.80
2018-06-27T08:45:58.662Z,52.10
2018-06-27T08:48:27.083Z,52.20
2018-06-27T08:50:55.504Z,51.40
2018-06-27T08:53:23.972Z,51.60
2018-06-27T08:55:52.373Z,51.10
2018-06-27T08:58:20.781Z,50.80
2018-06-27T09:00:49.230Z,50.40
2018-06-27T09:03:17.638Z,49.70
2018-06-27T09:05:46.107Z,50.90
2018-06-27T09:08:14.490Z,50.00
2018-06-27T09:10:42.925Z,50.80
2018-06-27T09:13:11.327Z,49.50
2018-06-27T09:15:39.753Z,48.90
2018-06-27T09:18:08.171Z,49.60
2018-06-27T09:20:36.606Z,48.70
2018-06-27T09:23:05.157Z,48.50
2018-06-27T09:28:01.625Z,48.70
2018-06-27T09:30:30.053Z,50.10
2018-06-27T09:32:58.482Z,49.30
2018-06-27T09:35:26.977Z,49.00
2018-06-27T09:37:55.387Z,47.90
2018-06-27T09:40:24.342Z,48.00
2018-06-27T09:42:52.816Z,47.90
2018-06-27T09:45:21.281Z,46.80
2018-06-27T09:47:49.681Z,47.30
2018-06-27T09:50:18.135Z,46.90
2018-06-27T09:52:46.512Z,47.50
2018-06-27T09:55:14.958Z,45.00
2018-06-27T09:57:43.367Z,45.20
2018-06-27T10:00:17.181Z,46.30
2018-06-27T10:02:45.628Z,46.10
2018-06-27T10:05:14.073Z,46.20
2018-06-27T10:10:10.622Z,45.80
2018-06-27T10:12:39.011Z,45.20
2018-06-27T10:15:07.425Z,45.00
2018-06-27T10:17:35.923Z,43.90
2018-06-27T10:20:04.394Z,45.30
2018-06-27T10:22:32.844Z,45.00
2018-06-27T10:25:01.256Z,44.40
2018-06-27T10:27:29.688Z,43.70
2018-06-27T10:29:58.072Z,45.90
2018-06-27T10:32:27.260Z,44.80
2018-06-27T10:34:55.744Z,45.20
2018-06-27T10:37:24.138Z,43.40
2018-06-27T10:39:52.579Z,43.90
2018-06-27T10:42:21.014Z,42.70
2018-06-27T10:44:49.465Z,43.60
2018-06-27T10:47:17.903Z,42.80
2018-06-27T10:49:46.412Z,42.00
2018-06-27T10:52:14.834Z,40.80
2018-06-27T10:57:17.163Z,41.00
2018-06-27T10:59:45.606Z,42.00
2018-06-27T11:02:14.013Z,40.20
2018-06-27T11:04:42.405Z,40.30
2018-06-27T11:07:10.912Z,40.40
2018-06-27T11:09:39.313Z,40.60
2018-06-27T11:12:07.802Z,40.20
2018-06-27T11:14:36.219Z,40.70
2018-06-27T11:17:04.807Z,40.40
2018-06-27T11:19:33.229Z,39.40
2018-06-27T11:22:01.620Z,40.60
2018-06-27T11:24:30.073Z,40.60
2018-06-27T11:26:58.658Z,40.80
2018-06-27T11:29:27.006Z,39.30
2018-06-27T11:34:23.626Z,41.60
2018-06-27T11:36:52.070Z,40.10
2018-06-27T11:39:20.457Z,40.40
2018-06-27T11:41:48.871Z,39.10
2018-06-27T11:44:17.308Z,38.80
2018-06-27T11:46:46.555Z,37.40
2018-06-27T11:49:15.046Z,36.60
2018-06-27T11:51:43.497Z,37.60
2018-06-27T11:54:12.883Z,37.40
2018-06-27T11:56:41.278Z,37.20
2018-06-27T11:59:09.800Z,36.20
2018-06-27T12:01:38.182Z,36.10
2018-06-27T12:04:06.581Z,36.80
2018-06-27T12:06:35.035Z,39.10
2018-06-27T12:09:03.930Z,36.40
2018-06-27T12:11:32.307Z,35.50
2018-06-27T12:14:00.718Z,35.30
2018-06-27T12:16:29.107Z,37.50
2018-06-27T12:18:57.503Z,36.40
2018-06-27T12:21:25.999Z,38.20
2018-06-27T12:23:54.571Z,35.70
2018-06-27T12:26:22.987Z,36.00
2018-06-27T12:28:51.299Z,36.30
2018-06-27T12:31:19.735Z,36.50
2018-06-27T12:33:48.208Z,37.90
2018-06-27T12:36:16.677Z,39.00
2018-06-27T12:38:45.149Z,37.30
2018-06-27T12:41:13.593Z,36.40
2018-06-27T12:43:42.069Z,36.80
2018-06-27T12:46:10.553Z,36.40
2018-06-27T12:48:38.998Z,37.40
2018-06-27T12:51:07.451Z,35.40
2018-06-27T12:53:35.913Z,36.20
2018-06-27T12:56:04.332Z,36.60
2018-06-27T12:58:32.742Z,35.80
2018-06-27T13:01:01.142Z,37.00
2018-06-27T13:03:29.529Z,38.40
2018-06-27T13:05:57.997Z,37.90
2018-06-27T13:08:26.394Z,37.10
2018-06-27T13:10:55.727Z,38.10
2018-06-27T13:13:24.215Z,36.60
2018-06-27T13:15:52.743Z,36.80
2018-06-27T13:18:21.089Z,36.40
2018-06-27T13:20:49.752Z,35.10
2018-06-27T13:23:18.658Z,38.10
2018-06-27T13:25:47.049Z,37.60
2018-06-27T13:28:15.474Z,36.60
2018-06-27T13:30:43.960Z,36.80
2018-06-27T13:33:12.357Z,37.70
2018-06-27T13:35:40.747Z,37.00
2018-06-27T13:38:09.191Z,36.80
2018-06-27T13:40:37.649Z,37.10
2018-06-27T13:43:06.074Z,36.50
2018-06-27T13:45:34.485Z,36.50
2018-06-27T13:48:02.930Z,35.40
2018-06-27T13:50:31.333Z,36.20
2018-06-27T13:52:59.820Z,36.70
2018-06-27T13:57:56.365Z,37.00
2018-06-27T14:00:24.838Z,37.70
2018-06-27T14:02:53.260Z,39.30
2018-06-27T14:05:21.673Z,39.30
2018-06-27T14:07:50.092Z,39.80
2018-06-27T14:10:18.509Z,37.60
2018-06-27T14:12:46.985Z,38.80
2018-06-27T14:15:15.433Z,38.70
2018-06-27T14:17:43.839Z,37.90
2018-06-27T14:20:12.237Z,38.20
2018-06-27T14:22:40.665Z,38.30
2018-06-27T14:25:09.093Z,38.70
2018-06-27T14:27:37.459Z,38.00
2018-06-27T14:30:05.897Z,37.80
2018-06-27T14:32:34.302Z,36.20
2018-06-27T14:35:02.729Z,35.70
2018-06-27T14:37:31.225Z,36.20
2018-06-27T14:39:59.663Z,37.80
2018-06-27T14:42:28.056Z,38.20
2018-06-27T14:44:56.489Z,37.10
2018-06-27T14:47:24.907Z,37.90
2018-06-27T14:49:53.462Z,38.70
2018-06-27T14:52:21.876Z,39.20
2018-06-27T14:54:51.122Z,39.30
2018-06-27T14:57:20.013Z,38.20
2018-06-27T14:59:48.948Z,37.50
2018-06-27T15:02:17.330Z,36.20
2018-06-27T15:04:45.911Z,37.70
2018-06-27T15:07:14.591Z,38.80
2018-06-27T15:09:43.017Z,38.80
2018-06-27T15:12:11.402Z,38.70
2018-06-27T15:14:39.801Z,38.00
2018-06-27T15:17:08.226Z,36.70
2018-06-27T15:19:36.759Z,37.40
2018-06-27T15:22:05.212Z,37.40
2018-06-27T15:24:33.651Z,38.30
2018-06-27T15:27:02.095Z,38.90
2018-06-27T15:29:30.476Z,39.10
2018-06-27T15:31:59.019Z,40.80
2018-06-27T15:36:55.835Z,40.50
2018-06-27T15:39:24.402Z,39.40
2018-06-27T15:41:53.172Z,38.70
2018-06-27T15:44:21.595Z,37.80
2018-06-27T15:46:50.533Z,37.90
2018-06-27T15:49:20.761Z,38.10
2018-06-27T15:51:49.249Z,38.40
2018-06-27T15:54:17.723Z,39.70
2018-06-27T15:56:46.234Z,39.70
2018-06-27T15:59:14.638Z,39.70
2018-06-27T16:01:43.112Z,40.10
2018-06-27T16:04:11.698Z,40.10
2018-06-27T16:06:40.099Z,40.80
2018-06-27T16:09:09.320Z,41.20
2018-06-27T16:11:38.686Z,40.40
2018-06-27T16:16:35.139Z,41.10
2018-06-27T16:19:03.580Z,40.30
2018-06-27T16:21:31.966Z,40.80
2018-06-27T16:24:00.423Z,40.90
2018-06-27T16:26:28.912Z,41.90
2018-06-27T16:31:25.473Z,41.30
2018-06-27T16:33:53.983Z,41.50
2018-06-27T16:36:22.449Z,42.40
2018-06-27T16:41:18.951Z,40.30
2018-06-27T16:43:47.360Z,39.80
2018-06-27T16:46:15.834Z,40.60
2018-06-27T16:48:44.296Z,41.20
2018-06-27T16:51:12.839Z,41.70
2018-06-27T16:53:41.234Z,41.80
2018-06-27T16:56:09.684Z,41.50
2018-06-27T16:58:38.130Z,41.80
2018-06-27T17:01:06.559Z,41.60
2018-06-27T17:06:03.207Z,41.50
2018-06-27T17:08:31.635Z,41.30
2018-06-27T17:11:00.034Z,42.00
2018-06-27T17:13:28.518Z,42.50
2018-06-27T17:15:56.990Z,42.00
2018-06-27T17:18:26.072Z,42.40
2018-06-27T17:20:54.486Z,42.90
2018-06-27T17:23:22.939Z,42.70
2018-06-27T17:25:51.429Z,43.10
2018-06-27T17:28:19.877Z,41.30
2018-06-27T17:30:48.343Z,41.70
2018-06-27T17:35:44.927Z,41.40
2018-06-27T17:38:13.374Z,42.20
2018-06-27T17:40:41.803Z,41.40
2018-06-27T17:43:10.337Z,41.50
2018-06-27T17:45:38.817Z,42.20
2018-06-27T17:48:07.306Z,42.00
2018-06-27T17:50:35.723Z,42.50
2018-06-27T17:53:04.249Z,42.20
2018-06-27T17:55:32.759Z,42.80
2018-06-27T18:00:29.411Z,43.40
2018-06-27T18:02:58.023Z,44.10
2018-06-27T18:05:26.457Z,44.90
2018-06-27T18:07:54.936Z,44.70
2018-06-27T18:10:23.332Z,44.70
2018-06-27T18:12:51.874Z,44.70
2018-06-27T18:15:20.508Z,44.70
2018-06-27T18:17:48.912Z,44.90
2018-06-27T18:20:17.390Z,45.00
2018-06-27T18:22:45.829Z,44.70
2018-06-27T18:25:14.270Z,43.00
2018-06-27T18:27:42.756Z,43.40
2018-06-27T18:30:11.654Z,43.60
2018-06-27T18:32:40.082Z,43.80
2018-06-27T18:35:08.490Z,44.00
2018-06-27T18:37:37.161Z,43.80
2018-06-27T18:40:06.306Z,44.00
2018-06-27T18:42:34.725Z,44.30
2018-06-27T18:45:03.294Z,44.00
2018-06-27T18:47:31.987Z,44.00
2018-06-27T18:50:00.513Z,43.70
2018-06-27T18:52:48.993Z,43.90
2018-06-27T18:55:17.625Z,44.00
2018-06-27T18:57:46.088Z,44.00
2018-06-27T19:00:14.663Z,44.20
2018-06-27T19:02:43.614Z,44.60
2018-06-27T19:05:12.478Z,44.10
2018-06-27T19:07:41.028Z,44.60
2018-06-27T19:10:09.438Z,44.50
2018-06-27T19:12:38.079Z,44.40
2018-06-27T19:15:06.522Z,45.00
2018-06-27T19:17:34.937Z,45.00
2018-06-27T19:20:03.447Z,44.90
2018-06-27T19:22:31.814Z,45.40
2018-06-27T19:25:00.271Z,45.50
2018-06-27T19:27:28.734Z,46.20
2018-06-27T19:29:57.226Z,45.90
2018-06-27T19:32:25.728Z,45.80
2018-06-27T19:34:54.258Z,45.70
2018-06-27T19:37:22.680Z,45.50
2018-06-27T19:39:51.207Z,45.80
2018-06-27T19:42:19.678Z,45.90
2018-06-27T19:44:48.072Z,45.90
2018-06-27T19:47:16.523Z,45.70
2018-06-27T19:49:44.941Z,45.80
2018-06-27T19:52:13.341Z,46.00
2018-06-27T19:54:41.716Z,45.80
2018-06-27T19:57:10.168Z,46.60
2018-06-27T19:59:39.502Z,47.00
2018-06-27T20:02:07.964Z,46.30
2018-06-27T20:04:36.385Z,46.40
2018-06-27T20:07:04.950Z,46.70
2018-06-27T20:09:33.383Z,46.90
2018-06-27T20:12:01.953Z,48.00
2018-06-27T20:14:30.488Z,48.30
2018-06-27T20:17:05.652Z,47.40
2018-06-27T20:19:35.100Z,47.50
2018-06-27T20:22:04.100Z,47.70
2018-06-27T20:24:32.742Z,48.20
2018-06-27T20:27:01.202Z,48.10
2018-06-27T20:29:29.698Z,48.30
2018-06-27T20:31:58.163Z,48.40
2018-06-27T20:34:26.715Z,48.80
2018-06-27T20:36:55.194Z,49.70
2018-06-27T20:39:23.674Z,49.50
2018-06-27T20:41:52.118Z,49.80
2018-06-27T20:44:20.536Z,49.60
2018-06-27T20:46:49.123Z,49.80
2018-06-27T20:49:17.576Z,48.80
2018-06-27T20:51:46.015Z,48.90
2018-06-27T20:54:14.744Z,49.60
2018-06-27T20:56:43.213Z,49.50
2018-06-27T20:59:11.655Z,49.20
2018-06-27T21:01:41.027Z,49.60
2018-06-27T21:04:09.445Z,49.60
2018-06-27T21:06:37.914Z,50.30
2018-06-27T21:09:08.075Z,50.30
2018-06-27T21:11:37.003Z,50.40
2018-06-27T21:14:05.378Z,50.10
2018-06-27T21:16:33.811Z,50.50
2018-06-27T21:19:02.346Z,50.60
2018-06-27T21:21:30.850Z,50.90
2018-06-27T21:23:59.280Z,51.20
2018-06-27T21:26:27.794Z,51.20
2018-06-27T21:31:24.378Z,51.50
2018-06-27T21:33:52.846Z,51.20
2018-06-27T21:36:21.294Z,51.20
2018-06-27T21:38:49.697Z,51.50
2018-06-27T21:41:18.120Z,51.50
2018-06-27T21:43:47.165Z,51.40
2018-06-27T21:46:15.581Z,52.00
2018-06-27T21:48:44.032Z,51.70
2018-06-27T21:51:12.479Z,51.30
2018-06-27T21:53:40.902Z,52.10
2018-06-27T21:56:09.365Z,52.10
2018-06-27T21:58:37.929Z,52.80
2018-06-27T22:01:06.469Z,52.30
2018-06-27T22:03:34.938Z,52.70
2018-06-27T22:06:03.378Z,52.40
2018-06-27T22:08:31.812Z,52.20
2018-06-27T22:11:00.310Z,52.40
2018-06-27T22:13:28.894Z,52.40
2018-06-27T22:15:57.295Z,52.50
2018-06-27T22:18:25.711Z,52.50
2018-06-27T22:20:54.154Z,53.20
2018-06-27T22:23:22.787Z,53.30
2018-06-27T22:25:51.222Z,53.30
2018-06-27T22:28:19.713Z,53.90
2018-06-27T22:30:48.190Z,53.40
2018-06-27T22:33:16.602Z,53.70
2018-06-27T22:35:45.097Z,53.80
2018-06-27T22:38:13.518Z,53.80
2018-06-27T22:40:41.911Z,54.00
2018-06-27T22:43:10.306Z,54.30
2018-06-27T22:45:38.744Z,54.80
2018-06-27T22:48:07.099Z,54.70
2018-06-27T22:50:35.612Z,55.30
2018-06-27T22:53:04.073Z,55.50
2018-06-27T22:55:32.564Z,55.90
2018-06-27T22:58:00.974Z,56.10
2018-06-27T23:00:29.350Z,56.40
2018-06-27T23:02:57.712Z,56.90
2018-06-27T23:05:26.144Z,57.20
2018-06-27T23:07:54.548Z,57.80
2018-06-27T23:10:22.988Z,58.50
2018-06-27T23:12:51.390Z,58.90
2018-06-27T23:15:19.905Z,59.00
2018-06-27T23:17:48.355Z,59.30
2018-06-27T23:20:16.730Z,59.30
2018-06-27T23:22:46.515Z,59.70
2018-06-27T23:25:15.006Z,60.20
2018-06-27T23:27:43.934Z,60.90
2018-06-27T23:30:12.358Z,61.60
2018-06-27T23:32:41.175Z,62.40
2018-06-27T23:35:09.914Z,63.10
2018-06-27T23:37:39.070Z,64.10
2018-06-27T23:40:07.902Z,64.80
2018-06-27T23:42:36.327Z,64.80
2018-06-27T23:45:06.023Z,65.50
2018-06-27T23:47:34.559Z,66.10
2018-06-27T23:50:03.227Z,66.80
2018-06-27T23:52:31.659Z,67.10
2018-06-27T23:55:00.059Z,67.50
2018-06-27T23:57:28.473Z,68.00
2018-06-27T23:59:57.191Z,68.30
